createdAt,value
2019-05-18T00:04:17.883Z,10.40
2019-05-18T00:09:19.456Z,9.73
2019-05-18T00:14:21.141Z,9.57
2019-05-18T00:19:22.744Z,9.90
2019-05-18T00:24:24.304Z,9.60
2019-05-18T00:29:25.872Z,9.33
2019-05-18T00:34:27.472Z,9.23
2019-05-18T00:39:29.042Z,9.00
2019-05-18T00:44:30.615Z,9.30
2019-05-18T00:49:32.183Z,9.43
2019-05-18T00:54:33.866Z,9.50
2019-05-18T00:59:35.508Z,9.20
2019-05-18T01:04:37.063Z,9.80
2019-05-18T01:09:38.774Z,9.53
2019-05-18T01:14:40.334Z,9.77
2019-05-18T01:19:41.926Z,8.73
2019-05-18T01:24:43.504Z,8.93
2019-05-18T01:29:45.100Z,8.43
2019-05-18T01:34:46.854Z,8.80
2019-05-18T01:39:48.540Z,7.97
2019-05-18T01:44:50.242Z,8.23
2019-05-18T01:49:51.974Z,7.50
2019-05-18T01:54:53.553Z,7.60
2019-05-18T01:59:55.290Z,7.97
2019-05-18T02:04:56.976Z,7.90
2019-05-18T02:09:58.587Z,8.20
2019-05-18T02:15:00.232Z,7.87
2019-05-18T02:20:02.278Z,8.10
2019-05-18T02:25:04.135Z,8.83
2019-05-18T02:30:06.496Z,8.43
2019-05-18T02:35:08.197Z,9.60
2019-05-18T02:40:09.880Z,9.13
2019-05-18T02:45:11.806Z,7.90
2019-05-18T02:50:13.509Z,6.27
2019-05-18T02:55:15.204Z,6.10
2019-05-18T03:00:16.857Z,6.23
2019-05-18T03:05:18.757Z,6.23
2019-05-18T03:10:20.443Z,6.67
2019-05-18T03:15:22.135Z,6.17
2019-05-18T03:20:23.800Z,6.00
2019-05-18T03:25:25.410Z,6.33
2019-05-18T03:30:27.098Z,6.13
2019-05-18T03:35:28.731Z,6.80
2019-05-18T03:40:30.393Z,6.10
2019-05-18T03:45:31.958Z,6.43
2019-05-18T03:50:33.492Z,6.37
2019-05-18T03:55:35.052Z,6.87
2019-05-18T04:00:36.618Z,8.10
2019-05-18T04:05:38.182Z,8.43
2019-05-18T04:10:39.741Z,7.37
2019-05-18T04:15:41.304Z,7.43
2019-05-18T04:20:42.856Z,7.43
2019-05-18T04:25:44.426Z,7.40
2019-05-18T04:30:45.978Z,7.50
2019-05-18T04:35:47.519Z,8.00
2019-05-18T04:40:49.076Z,8.17
2019-05-18T04:45:50.633Z,8.50
2019-05-18T04:50:52.193Z,7.33
2019-05-18T04:55:53.781Z,8.17
2019-05-18T05:00:55.321Z,8.33
2019-05-18T05:05:56.865Z,7.17
2019-05-18T05:10:58.405Z,7.60
2019-05-18T05:15:59.945Z,7.37
2019-05-18T05:21:01.480Z,7.10
2019-05-18T05:26:03.135Z,7.07
2019-05-18T05:31:04.675Z,6.53
2019-05-18T05:36:06.216Z,7.43
2019-05-18T05:41:07.789Z,7.13
2019-05-18T05:46:09.359Z,7.40
2019-05-18T05:51:10.915Z,6.80
2019-05-18T05:56:12.547Z,12.77
2019-05-18T06:01:14.109Z,7.97
2019-05-18T06:06:15.659Z,7.73
2019-05-18T06:11:17.197Z,7.57
2019-05-18T06:16:18.745Z,7.90
2019-05-18T06:21:20.387Z,6.70
2019-05-18T06:26:24.223Z,8.50
2019-05-18T06:31:25.400Z,6.30
2019-05-18T06:36:26.962Z,7.00
2019-05-18T06:41:28.529Z,6.97
2019-05-18T06:46:30.104Z,7.40
2019-05-18T06:51:31.661Z,6.80
2019-05-18T06:56:33.614Z,7.07
2019-05-18T07:01:35.156Z,6.70
2019-05-18T07:06:36.719Z,6.80
2019-05-18T07:11:38.405Z,6.83
2019-05-18T07:16:39.950Z,7.30
2019-05-18T07:21:41.591Z,8.13
2019-05-18T07:26:43.148Z,7.23
2019-05-18T07:31:44.701Z,8.10
2019-05-18T07:36:46.250Z,7.53
2019-05-18T07:41:47.823Z,7.63
2019-05-18T07:46:49.406Z,7.25
2019-05-18T07:51:50.989Z,7.50
2019-05-18T07:56:52.705Z,7.65
2019-05-18T08:01:54.261Z,7.50
2019-05-18T08:06:55.879Z,7.92
2019-05-18T08:11:57.443Z,7.70
2019-05-18T08:16:59.016Z,8.15
2019-05-18T08:22:00.585Z,7.05
2019-05-18T08:27:02.557Z,8.00
2019-05-18T08:32:04.324Z,8.83
2019-05-18T08:37:05.917Z,7.67
2019-05-18T08:42:07.611Z,8.93
2019-05-18T08:47:09.149Z,7.75
2019-05-18T08:52:10.936Z,8.48
2019-05-18T08:57:12.483Z,7.37
2019-05-18T09:02:14.060Z,7.12
2019-05-18T09:07:15.645Z,7.50
2019-05-18T09:12:17.334Z,7.90
2019-05-18T09:17:18.890Z,6.45
2019-05-18T09:22:23.165Z,6.90
2019-05-18T09:27:24.144Z,7.20
2019-05-18T09:32:25.702Z,7.12
2019-05-18T09:37:27.252Z,7.70
2019-05-18T09:42:29.017Z,7.15
2019-05-18T09:47:30.569Z,6.53
2019-05-18T09:52:44.164Z,6.97
2019-05-18T09:57:35.772Z,6.72
2019-05-18T10:02:37.479Z,5.72
2019-05-18T10:07:39.065Z,6.37
2019-05-18T10:12:40.670Z,5.45
2019-05-18T10:17:42.261Z,5.90
2019-05-18T10:22:55.201Z,4.95
2019-05-18T10:27:47.377Z,5.28
2019-05-18T10:32:48.959Z,5.78
2019-05-18T10:37:50.533Z,5.05
2019-05-18T10:42:52.112Z,4.30
2019-05-18T10:47:55.355Z,5.58
2019-05-18T10:52:56.949Z,5.35
2019-05-18T10:57:58.602Z,5.00
2019-05-18T11:03:00.309Z,4.45
2019-05-18T11:08:02.900Z,5.00
2019-05-18T11:13:04.495Z,4.60
2019-05-18T11:18:06.168Z,3.98
2019-05-18T11:23:07.773Z,3.95
2019-05-18T11:28:09.588Z,3.80
2019-05-18T11:33:11.328Z,4.20
2019-05-18T11:38:13.051Z,4.83
2019-05-18T11:43:14.720Z,3.62
2019-05-18T11:48:16.356Z,4.30
2019-05-18T11:53:18.098Z,3.25
2019-05-18T11:58:19.712Z,3.25
2019-05-18T12:03:21.320Z,3.50
2019-05-18T12:08:22.984Z,3.33
2019-05-18T12:13:24.665Z,3.35
2019-05-18T12:18:26.276Z,4.17
2019-05-18T12:23:28.580Z,3.70
2019-05-18T12:28:31.533Z,3.58
2019-05-18T12:33:33.216Z,4.72
2019-05-18T12:38:34.798Z,4.75
2019-05-18T12:43:36.506Z,4.55
2019-05-18T12:48:38.214Z,4.00
2019-05-18T12:53:39.910Z,4.05
2019-05-18T12:58:41.474Z,4.58
2019-05-18T13:03:43.053Z,4.22
2019-05-18T13:08:44.729Z,5.12
2019-05-18T13:13:46.286Z,4.42
2019-05-18T13:18:47.868Z,4.22
2019-05-18T13:23:49.475Z,4.90
2019-05-18T13:28:51.153Z,4.45
2019-05-18T13:33:52.711Z,5.03
2019-05-18T13:38:54.386Z,4.58
2019-05-18T13:43:56.034Z,4.60
2019-05-18T13:48:57.592Z,4.42
2019-05-18T13:53:59.192Z,4.90
2019-05-18T13:59:00.806Z,4.85
2019-05-18T14:04:02.645Z,4.60
2019-05-18T14:09:04.652Z,5.08
2019-05-18T14:14:06.399Z,5.20
2019-05-18T14:19:08.085Z,4.35
2019-05-18T14:24:09.757Z,4.80
2019-05-18T14:29:11.366Z,5.28
2019-05-18T14:34:13.037Z,5.03
2019-05-18T14:39:15.486Z,4.78
2019-05-18T14:44:17.094Z,4.45
2019-05-18T14:49:18.670Z,4.90
2019-05-18T14:54:24.992Z,5.03
2019-05-18T14:59:23.722Z,4.95
2019-05-18T15:04:25.409Z,3.52
2019-05-18T15:09:26.995Z,4.17
2019-05-18T15:14:28.543Z,4.50
2019-05-18T15:19:30.147Z,4.37
2019-05-18T15:24:31.845Z,4.22
2019-05-18T15:29:33.435Z,62.30
2019-05-18T15:34:35.008Z,31.00
2019-05-18T15:39:36.577Z,18.07
2019-05-18T15:44:38.184Z,5.87
2019-05-18T15:49:39.755Z,4.05
2019-05-18T15:54:41.351Z,4.58
2019-05-18T15:59:42.959Z,4.75
2019-05-18T16:04:44.558Z,4.45
2019-05-18T16:09:46.335Z,4.58
2019-05-18T16:14:47.909Z,4.40
2019-05-18T16:19:49.576Z,4.30
2019-05-18T16:24:51.309Z,7.12
2019-05-18T16:29:52.871Z,47.80
2019-05-18T16:34:54.424Z,47.70
2019-05-18T16:39:56.078Z,92.65
2019-05-18T16:44:57.656Z,45.15
2019-05-18T16:49:59.299Z,18.85
2019-05-18T16:55:00.863Z,6.22
2019-05-18T17:00:03.672Z,4.92
2019-05-18T17:05:05.450Z,5.40
2019-05-18T17:10:07.509Z,5.20
2019-05-18T17:15:09.464Z,5.10
2019-05-18T17:20:11.489Z,4.95
2019-05-18T17:25:13.272Z,5.00
2019-05-18T17:30:15.447Z,5.17
2019-05-18T17:35:17.106Z,4.70
2019-05-18T17:40:18.853Z,8.15
2019-05-18T17:45:20.506Z,4.30
2019-05-18T17:50:22.161Z,4.30
2019-05-18T17:55:23.710Z,4.25
2019-05-18T18:00:25.362Z,4.92
2019-05-18T18:05:26.903Z,5.17
2019-05-18T18:10:28.589Z,6.12
2019-05-18T18:15:30.223Z,5.15
2019-05-18T18:20:31.891Z,5.40
2019-05-18T18:25:33.571Z,5.78
2019-05-18T18:30:35.253Z,5.65
2019-05-18T18:35:39.556Z,6.08
2019-05-18T18:40:40.525Z,6.25
2019-05-18T18:45:42.277Z,10.35
2019-05-18T18:50:43.950Z,12.00
2019-05-18T18:55:45.608Z,21.70
2019-05-18T19:00:47.176Z,8.80
2019-05-18T19:05:48.730Z,8.65
2019-05-18T19:10:50.389Z,23.30
2019-05-18T19:15:52.055Z,12.88
2019-05-18T19:20:53.640Z,9.58
2019-05-18T19:25:55.220Z,8.10
2019-05-18T19:30:56.781Z,8.45
2019-05-18T19:35:58.341Z,8.33
2019-05-18T19:40:59.925Z,8.80
2019-05-18T19:46:01.599Z,8.20
2019-05-18T19:51:03.268Z,8.58
2019-05-18T19:56:04.922Z,11.22
2019-05-18T20:01:06.494Z,10.08
2019-05-18T20:06:08.165Z,10.78
2019-05-18T20:11:09.721Z,10.63
2019-05-18T20:16:11.280Z,11.93
2019-05-18T20:21:12.825Z,14.65
2019-05-18T20:26:14.388Z,10.90
2019-05-18T20:31:15.950Z,10.10
2019-05-18T20:36:17.540Z,11.35
2019-05-18T20:41:19.136Z,9.58
2019-05-18T20:46:20.835Z,9.60
2019-05-18T20:51:22.385Z,9.55
2019-05-18T20:56:24.043Z,9.65
2019-05-18T21:01:25.740Z,9.83
2019-05-18T21:06:27.308Z,10.45
2019-05-18T21:11:28.972Z,10.72
2019-05-18T21:16:30.548Z,11.43
2019-05-18T21:21:32.233Z,10.48
2019-05-18T21:26:34.067Z,10.15
2019-05-18T21:31:35.618Z,9.58
2019-05-18T21:36:37.178Z,11.05
2019-05-18T21:41:38.725Z,10.35
2019-05-18T21:46:40.278Z,10.45
2019-05-18T21:51:41.840Z,10.23
2019-05-18T21:56:43.391Z,10.82
2019-05-18T22:01:44.958Z,11.73
2019-05-18T22:06:46.500Z,11.15
2019-05-18T22:11:48.175Z,10.65
2019-05-18T22:16:49.714Z,11.33
2019-05-18T22:21:51.287Z,15.27
2019-05-18T22:26:52.833Z,10.20
2019-05-18T22:31:54.496Z,11.20
2019-05-18T22:36:56.075Z,10.70
2019-05-18T22:41:57.744Z,13.20
2019-05-18T22:46:59.331Z,11.53
2019-05-18T22:52:00.914Z,14.45
2019-05-18T22:57:02.498Z,14.80
2019-05-18T23:02:04.171Z,14.55
2019-05-18T23:07:05.711Z,15.67
2019-05-18T23:12:07.425Z,14.97
2019-05-18T23:17:09.067Z,13.93
2019-05-18T23:22:10.627Z,13.50
2019-05-18T23:27:12.169Z,14.10
2019-05-18T23:32:13.844Z,13.23
2019-05-18T23:37:15.394Z,13.70
2019-05-18T23:42:16.954Z,13.40
2019-05-18T23:47:18.511Z,13.18
2019-05-18T23:52:20.063Z,12.50
2019-05-18T23:57:21.642Z,11.63
